sensor_id;sensor_type;location;lat;lon;timestamp;P1;durP1;ratioP1;P2;durP2;ratioP2
3683;SDS011;1858;48.716;9.648;2023-06-22T00:00:25;11.70;;;5.07;;
3683;SDS011;1858;48.716;9.648;2023-06-22T00:02:53;5.93;;;4.00;;
3683;SDS011;1858;48.716;9.648;2023-06-22T00:05:22;5.87;;;3.50;;
3683;SDS011;1858;48.716;9.648;2023-06-22T00:07:50;7.50;;;4.70;;
3683;SDS011;1858;48.716;9.648;2023-06-22T00:10:18;4.90;;;3.40;;
3683;SDS011;1858;48.716;9.648;2023-06-22T00:12:47;7.97;;;5.23;;
3683;SDS011;1858;48.716;9.648;2023-06-22T00:15:15;9.30;;;3.73;;
3683;SDS011;1858;48.716;9.648;2023-06-22T00:17:44;11.70;;;4.83;;
3683;SDS011;1858;48.716;9.648;2023-06-22T00:20:12;8.20;;;4.50;;
3683;SDS011;1858;48.716;9.648;2023-06-22T00:22:41;8.90;;;5.00;;
3683;SDS011;1858;48.716;9.648;2023-06-22T00:25:10;6.47;;;4.20;;
3683;SDS011;1858;48.716;9.648;2023-06-22T00:27:39;5.53;;;3.90;;
3683;SDS011;1858;48.716;9.648;2023-06-22T00:30:07;5.93;;;4.27;;
3683;SDS011;1858;48.716;9.648;2023-06-22T00:32:36;5.90;;;3.93;;
3683;SDS011;1858;48.716;9.648;2023-06-22T00:35:04;6.30;;;3.93;;
3683;SDS011;1858;48.716;9.648;2023-06-22T00:37:38;5.70;;;4.30;;
3683;SDS011;1858;48.716;9.648;2023-06-22T00:40:09;7.80;;;4.07;;
3683;SDS011;1858;48.716;9.648;2023-06-22T00:42:38;9.87;;;4.60;;
3683;SDS011;1858;48.716;9.648;2023-06-22T00:45:07;7.73;;;4.73;;
3683;SDS011;1858;48.716;9.648;2023-06-22T00:47:36;6.30;;;3.50;;
3683;SDS011;1858;48.716;9.648;2023-06-22T00:50:05;5.63;;;3.77;;
3683;SDS011;1858;48.716;9.648;2023-06-22T00:52:36;9.37;;;4.50;;
3683;SDS011;1858;48.716;9.648;2023-06-22T00:55:07;8.07;;;4.40;;
3683;SDS011;1858;48.716;9.648;2023-06-22T00:57:35;8.07;;;4.57;;
3683;SDS011;1858;48.716;9.648;2023-06-22T01:00:25;7.70;;;4.10;;
3683;SDS011;1858;48.716;9.648;2023-06-22T01:02:53;7.10;;;3.50;;
3683;SDS011;1858;48.716;9.648;2023-06-22T01:05:22;6.17;;;3.87;;
3683;SDS011;1858;48.716;9.648;2023-06-22T01:07:59;5.87;;;3.77;;
3683;SDS011;1858;48.716;9.648;2023-06-22T01:16:30;7.47;;;3.93;;
3683;SDS011;1858;48.716;9.648;2023-06-22T01:19:01;5.87;;;4.70;;
3683;SDS011;1858;48.716;9.648;2023-06-22T01:27:52;6.50;;;4.90;;
3683;SDS011;1858;48.716;9.648;2023-06-22T01:30:39;6.90;;;4.57;;
3683;SDS011;1858;48.716;9.648;2023-06-22T01:33:12;7.37;;;4.33;;
3683;SDS011;1858;48.716;9.648;2023-06-22T01:35:42;6.20;;;4.30;;
3683;SDS011;1858;48.716;9.648;2023-06-22T01:41:00;8.53;;;5.87;;
3683;SDS011;1858;48.716;9.648;2023-06-22T01:43:30;5.93;;;3.87;;
3683;SDS011;1858;48.716;9.648;2023-06-22T01:51:35;5.80;;;4.00;;
3683;SDS011;1858;48.716;9.648;2023-06-22T01:54:05;9.50;;;5.23;;
3683;SDS011;1858;48.716;9.648;2023-06-22T01:56:35;9.27;;;6.00;;
3683;SDS011;1858;48.716;9.648;2023-06-22T02:02:10;5.63;;;4.10;;
3683;SDS011;1858;48.716;9.648;2023-06-22T02:04:59;7.00;;;5.10;;
3683;SDS011;1858;48.716;9.648;2023-06-22T02:07:34;8.90;;;5.60;;
3683;SDS011;1858;48.716;9.648;2023-06-22T02:10:30;12.40;;;4.40;;
3683;SDS011;1858;48.716;9.648;2023-06-22T02:13:00;8.17;;;5.60;;
3683;SDS011;1858;48.716;9.648;2023-06-22T02:15:30;6.40;;;4.33;;
3683;SDS011;1858;48.716;9.648;2023-06-22T02:17:59;8.57;;;5.50;;
3683;SDS011;1858;48.716;9.648;2023-06-22T02:20:28;8.70;;;5.93;;
3683;SDS011;1858;48.716;9.648;2023-06-22T02:22:56;9.40;;;5.17;;
3683;SDS011;1858;48.716;9.648;2023-06-22T02:25:25;8.20;;;5.40;;
3683;SDS011;1858;48.716;9.648;2023-06-22T02:27:53;7.00;;;4.90;;
3683;SDS011;1858;48.716;9.648;2023-06-22T02:30:21;15.07;;;5.70;;
3683;SDS011;1858;48.716;9.648;2023-06-22T02:32:50;8.40;;;4.87;;
3683;SDS011;1858;48.716;9.648;2023-06-22T02:35:20;7.67;;;4.93;;
3683;SDS011;1858;48.716;9.648;2023-06-22T02:37:48;6.47;;;4.50;;
3683;SDS011;1858;48.716;9.648;2023-06-22T02:40:18;6.30;;;4.57;;
3683;SDS011;1858;48.716;9.648;2023-06-22T02:42:46;8.20;;;5.17;;
3683;SDS011;1858;48.716;9.648;2023-06-22T02:45:15;7.57;;;5.50;;
3683;SDS011;1858;48.716;9.648;2023-06-22T02:47:43;7.80;;;4.90;;
3683;SDS011;1858;48.716;9.648;2023-06-22T02:50:12;7.70;;;5.00;;
3683;SDS011;1858;48.716;9.648;2023-06-22T02:52:40;6.43;;;5.50;;
3683;SDS011;1858;48.716;9.648;2023-06-22T02:55:09;9.70;;;5.53;;
3683;SDS011;1858;48.716;9.648;2023-06-22T02:57:37;5.77;;;4.13;;
3683;SDS011;1858;48.716;9.648;2023-06-22T03:00:09;10.20;;;5.03;;
3683;SDS011;1858;48.716;9.648;2023-06-22T03:02:57;8.67;;;5.07;;
3683;SDS011;1858;48.716;9.648;2023-06-22T03:05:25;6.80;;;4.20;;
3683;SDS011;1858;48.716;9.648;2023-06-22T03:07:54;7.43;;;5.20;;
3683;SDS011;1858;48.716;9.648;2023-06-22T03:10:22;9.30;;;4.17;;
3683;SDS011;1858;48.716;9.648;2023-06-22T03:12:50;8.77;;;4.50;;
3683;SDS011;1858;48.716;9.648;2023-06-22T03:15:19;8.93;;;5.57;;
3683;SDS011;1858;48.716;9.648;2023-06-22T03:17:47;8.63;;;5.13;;
3683;SDS011;1858;48.716;9.648;2023-06-22T03:20:16;5.53;;;3.83;;
3683;SDS011;1858;48.716;9.648;2023-06-22T03:22:45;5.37;;;3.60;;
3683;SDS011;1858;48.716;9.648;2023-06-22T03:25:15;8.20;;;4.80;;
3683;SDS011;1858;48.716;9.648;2023-06-22T03:27:43;7.77;;;4.33;;
3683;SDS011;1858;48.716;9.648;2023-06-22T03:30:14;8.70;;;4.70;;
3683;SDS011;1858;48.716;9.648;2023-06-22T03:32:43;9.50;;;4.03;;
3683;SDS011;1858;48.716;9.648;2023-06-22T03:35:13;6.93;;;4.47;;
3683;SDS011;1858;48.716;9.648;2023-06-22T03:37:41;7.40;;;4.20;;
3683;SDS011;1858;48.716;9.648;2023-06-22T03:40:10;10.93;;;5.03;;
3683;SDS011;1858;48.716;9.648;2023-06-22T03:42:59;7.90;;;4.90;;
3683;SDS011;1858;48.716;9.648;2023-06-22T03:45:28;9.63;;;4.80;;
3683;SDS011;1858;48.716;9.648;2023-06-22T03:47:56;8.10;;;5.23;;
3683;SDS011;1858;48.716;9.648;2023-06-22T03:50:24;6.30;;;4.50;;
3683;SDS011;1858;48.716;9.648;2023-06-22T03:52:53;8.30;;;5.27;;
3683;SDS011;1858;48.716;9.648;2023-06-22T03:55:21;8.87;;;5.10;;
3683;SDS011;1858;48.716;9.648;2023-06-22T03:57:50;12.23;;;4.53;;
3683;SDS011;1858;48.716;9.648;2023-06-22T04:00:20;10.93;;;4.47;;
3683;SDS011;1858;48.716;9.648;2023-06-22T04:02:48;12.03;;;5.17;;
3683;SDS011;1858;48.716;9.648;2023-06-22T04:05:17;6.07;;;3.97;;
3683;SDS011;1858;48.716;9.648;2023-06-22T04:07:46;7.70;;;3.80;;
3683;SDS011;1858;48.716;9.648;2023-06-22T04:10:15;9.37;;;4.07;;
3683;SDS011;1858;48.716;9.648;2023-06-22T04:12:43;5.30;;;3.40;;
3683;SDS011;1858;48.716;9.648;2023-06-22T04:15:12;5.57;;;3.50;;
3683;SDS011;1858;48.716;9.648;2023-06-22T04:17:40;8.33;;;3.87;;
3683;SDS011;1858;48.716;9.648;2023-06-22T04:20:09;7.97;;;4.23;;
3683;SDS011;1858;48.716;9.648;2023-06-22T04:22:37;7.27;;;4.77;;
3683;SDS011;1858;48.716;9.648;2023-06-22T04:25:06;5.50;;;4.30;;
3683;SDS011;1858;48.716;9.648;2023-06-22T04:27:35;6.47;;;5.10;;
3683;SDS011;1858;48.716;9.648;2023-06-22T04:30:05;8.17;;;3.60;;
3683;SDS011;1858;48.716;9.648;2023-06-22T04:35:26;4.53;;;3.73;;
3683;SDS011;1858;48.716;9.648;2023-06-22T04:37:55;8.30;;;3.60;;
3683;SDS011;1858;48.716;9.648;2023-06-22T04:40:25;6.30;;;4.23;;
3683;SDS011;1858;48.716;9.648;2023-06-22T04:42:53;8.00;;;3.37;;
3683;SDS011;1858;48.716;9.648;2023-06-22T04:45:22;8.10;;;4.40;;
3683;SDS011;1858;48.716;9.648;2023-06-22T04:47:50;5.93;;;3.53;;
3683;SDS011;1858;48.716;9.648;2023-06-22T04:50:19;5.80;;;3.50;;
3683;SDS011;1858;48.716;9.648;2023-06-22T04:52:49;3.60;;;2.70;;
3683;SDS011;1858;48.716;9.648;2023-06-22T04:55:39;6.13;;;2.83;;
3683;SDS011;1858;48.716;9.648;2023-06-22T04:58:30;4.70;;;3.40;;
3683;SDS011;1858;48.716;9.648;2023-06-22T05:00:59;6.77;;;4.17;;
3683;SDS011;1858;48.716;9.648;2023-06-22T05:03:27;5.43;;;3.67;;
3683;SDS011;1858;48.716;9.648;2023-06-22T05:05:56;4.83;;;3.47;;
3683;SDS011;1858;48.716;9.648;2023-06-22T05:08:24;6.17;;;4.03;;
3683;SDS011;1858;48.716;9.648;2023-06-22T05:10:53;5.83;;;4.37;;
3683;SDS011;1858;48.716;9.648;2023-06-22T05:13:21;5.97;;;3.70;;
3683;SDS011;1858;48.716;9.648;2023-06-22T05:15:51;8.13;;;3.83;;
3683;SDS011;1858;48.716;9.648;2023-06-22T05:18:21;5.60;;;3.70;;
3683;SDS011;1858;48.716;9.648;2023-06-22T05:20:50;5.40;;;3.10;;
3683;SDS011;1858;48.716;9.648;2023-06-22T05:23:19;5.60;;;3.60;;
3683;SDS011;1858;48.716;9.648;2023-06-22T05:25:47;5.00;;;3.30;;
3683;SDS011;1858;48.716;9.648;2023-06-22T05:28:16;6.10;;;3.37;;
3683;SDS011;1858;48.716;9.648;2023-06-22T05:30:46;4.47;;;3.37;;
3683;SDS011;1858;48.716;9.648;2023-06-22T05:33:14;4.10;;;2.87;;
3683;SDS011;1858;48.716;9.648;2023-06-22T05:38:30;6.40;;;4.40;;
3683;SDS011;1858;48.716;9.648;2023-06-22T05:41:00;6.60;;;4.50;;
3683;SDS011;1858;48.716;9.648;2023-06-22T05:43:28;7.53;;;4.40;;
3683;SDS011;1858;48.716;9.648;2023-06-22T05:45:57;6.47;;;3.63;;
3683;SDS011;1858;48.716;9.648;2023-06-22T05:48:27;6.43;;;4.00;;
3683;SDS011;1858;48.716;9.648;2023-06-22T05:50:56;6.83;;;4.23;;
3683;SDS011;1858;48.716;9.648;2023-06-22T05:53:24;6.90;;;4.87;;
3683;SDS011;1858;48.716;9.648;2023-06-22T05:55:53;6.53;;;4.40;;
3683;SDS011;1858;48.716;9.648;2023-06-22T05:58:22;8.37;;;4.53;;
3683;SDS011;1858;48.716;9.648;2023-06-22T06:00:50;6.07;;;4.23;;
3683;SDS011;1858;48.716;9.648;2023-06-22T06:03:20;6.33;;;4.47;;
3683;SDS011;1858;48.716;9.648;2023-06-22T06:05:49;5.33;;;4.43;;
3683;SDS011;1858;48.716;9.648;2023-06-22T06:08:18;5.50;;;3.97;;
3683;SDS011;1858;48.716;9.648;2023-06-22T06:10:46;5.80;;;3.93;;
3683;SDS011;1858;48.716;9.648;2023-06-22T06:13:15;9.27;;;4.93;;
3683;SDS011;1858;48.716;9.648;2023-06-22T06:15:43;6.80;;;4.20;;
3683;SDS011;1858;48.716;9.648;2023-06-22T06:18:12;6.53;;;2.80;;
3683;SDS011;1858;48.716;9.648;2023-06-22T06:20:40;4.60;;;2.20;;
3683;SDS011;1858;48.716;9.648;2023-06-22T06:23:09;2.80;;;1.97;;
3683;SDS011;1858;48.716;9.648;2023-06-22T06:25:39;10.53;;;2.50;;
3683;SDS011;1858;48.716;9.648;2023-06-22T06:28:07;6.83;;;2.27;;
3683;SDS011;1858;48.716;9.648;2023-06-22T06:33:23;6.37;;;2.20;;
3683;SDS011;1858;48.716;9.648;2023-06-22T06:35:52;3.50;;;2.20;;
3683;SDS011;1858;48.716;9.648;2023-06-22T06:38:22;5.63;;;2.37;;
3683;SDS011;1858;48.716;9.648;2023-06-22T06:40:50;4.93;;;1.97;;
3683;SDS011;1858;48.716;9.648;2023-06-22T06:43:19;8.23;;;2.57;;
3683;SDS011;1858;48.716;9.648;2023-06-22T06:45:47;9.47;;;2.03;;
3683;SDS011;1858;48.716;9.648;2023-06-22T06:48:16;5.20;;;1.83;;
3683;SDS011;1858;48.716;9.648;2023-06-22T06:50:44;4.50;;;1.87;;
3683;SDS011;1858;48.716;9.648;2023-06-22T06:53:13;2.70;;;1.60;;
3683;SDS011;1858;48.716;9.648;2023-06-22T06:55:41;3.77;;;1.63;;
3683;SDS011;1858;48.716;9.648;2023-06-22T06:58:11;3.67;;;1.60;;
3683;SDS011;1858;48.716;9.648;2023-06-22T07:00:40;5.83;;;2.00;;
3683;SDS011;1858;48.716;9.648;2023-06-22T07:03:10;6.27;;;1.83;;
3683;SDS011;1858;48.716;9.648;2023-06-22T07:05:38;4.83;;;2.10;;
3683;SDS011;1858;48.716;9.648;2023-06-22T07:08:07;5.03;;;1.70;;
3683;SDS011;1858;48.716;9.648;2023-06-22T07:10:35;5.47;;;2.23;;
3683;SDS011;1858;48.716;9.648;2023-06-22T07:13:03;5.40;;;1.70;;
3683;SDS011;1858;48.716;9.648;2023-06-22T07:15:32;6.60;;;1.83;;
3683;SDS011;1858;48.716;9.648;2023-06-22T07:18:00;5.50;;;2.60;;
3683;SDS011;1858;48.716;9.648;2023-06-22T07:20:29;5.07;;;2.10;;
3683;SDS011;1858;48.716;9.648;2023-06-22T07:22:57;3.50;;;1.73;;
3683;SDS011;1858;48.716;9.648;2023-06-22T07:25:26;9.03;;;1.90;;
3683;SDS011;1858;48.716;9.648;2023-06-22T07:30:46;3.80;;;2.00;;
3683;SDS011;1858;48.716;9.648;2023-06-22T07:33:15;4.53;;;1.70;;
3683;SDS011;1858;48.716;9.648;2023-06-22T07:35:44;5.27;;;2.00;;
3683;SDS011;1858;48.716;9.648;2023-06-22T07:38:14;4.77;;;1.93;;
3683;SDS011;1858;48.716;9.648;2023-06-22T07:40:42;4.17;;;2.20;;
3683;SDS011;1858;48.716;9.648;2023-06-22T07:43:11;6.87;;;2.63;;
3683;SDS011;1858;48.716;9.648;2023-06-22T07:45:39;7.70;;;2.00;;
3683;SDS011;1858;48.716;9.648;2023-06-22T07:48:11;6.23;;;2.67;;
3683;SDS011;1858;48.716;9.648;2023-06-22T07:50:39;5.67;;;2.13;;
3683;SDS011;1858;48.716;9.648;2023-06-22T07:53:08;4.23;;;1.27;;
3683;SDS011;1858;48.716;9.648;2023-06-22T07:55:36;4.47;;;1.90;;
3683;SDS011;1858;48.716;9.648;2023-06-22T07:58:04;3.33;;;2.20;;
3683;SDS011;1858;48.716;9.648;2023-06-22T08:00:33;10.20;;;1.90;;
3683;SDS011;1858;48.716;9.648;2023-06-22T08:03:02;6.00;;;2.17;;
3683;SDS011;1858;48.716;9.648;2023-06-22T08:05:31;5.00;;;1.77;;
3683;SDS011;1858;48.716;9.648;2023-06-22T08:08:00;6.70;;;1.93;;
3683;SDS011;1858;48.716;9.648;2023-06-22T08:10:29;7.10;;;2.60;;
3683;SDS011;1858;48.716;9.648;2023-06-22T08:12:57;8.17;;;2.30;;
3683;SDS011;1858;48.716;9.648;2023-06-22T08:15:26;4.10;;;1.70;;
3683;SDS011;1858;48.716;9.648;2023-06-22T08:17:55;4.37;;;2.50;;
3683;SDS011;1858;48.716;9.648;2023-06-22T08:20:24;8.03;;;2.03;;
3683;SDS011;1858;48.716;9.648;2023-06-22T08:22:53;6.00;;;2.20;;
3683;SDS011;1858;48.716;9.648;2023-06-22T08:25:24;6.63;;;2.83;;
3683;SDS011;1858;48.716;9.648;2023-06-22T08:27:53;6.27;;;2.57;;
3683;SDS011;1858;48.716;9.648;2023-06-22T08:30:21;4.87;;;2.60;;
3683;SDS011;1858;48.716;9.648;2023-06-22T08:32:50;7.30;;;2.60;;
3683;SDS011;1858;48.716;9.648;2023-06-22T08:35:18;3.57;;;2.10;;
3683;SDS011;1858;48.716;9.648;2023-06-22T08:37:47;7.53;;;2.30;;
3683;SDS011;1858;48.716;9.648;2023-06-22T08:40:17;7.27;;;2.90;;
3683;SDS011;1858;48.716;9.648;2023-06-22T08:42:46;6.00;;;2.80;;
3683;SDS011;1858;48.716;9.648;2023-06-22T08:45:15;5.93;;;2.50;;
3683;SDS011;1858;48.716;9.648;2023-06-22T08:47:44;4.13;;;2.17;;
3683;SDS011;1858;48.716;9.648;2023-06-22T08:53:01;6.30;;;2.20;;
3683;SDS011;1858;48.716;9.648;2023-06-22T08:55:29;4.80;;;2.37;;
3683;SDS011;1858;48.716;9.648;2023-06-22T08:57:57;5.57;;;2.20;;
3683;SDS011;1858;48.716;9.648;2023-06-22T09:00:26;4.87;;;2.67;;
3683;SDS011;1858;48.716;9.648;2023-06-22T09:02:56;4.90;;;2.13;;
3683;SDS011;1858;48.716;9.648;2023-06-22T09:05:25;6.77;;;2.77;;
3683;SDS011;1858;48.716;9.648;2023-06-22T09:07:54;12.83;;;3.07;;
3683;SDS011;1858;48.716;9.648;2023-06-22T09:10:25;6.40;;;2.20;;
3683;SDS011;1858;48.716;9.648;2023-06-22T09:12:54;5.37;;;2.43;;
3683;SDS011;1858;48.716;9.648;2023-06-22T09:15:22;7.50;;;3.07;;
3683;SDS011;1858;48.716;9.648;2023-06-22T09:17:51;4.60;;;2.60;;
3683;SDS011;1858;48.716;9.648;2023-06-22T09:20:20;4.90;;;2.60;;
3683;SDS011;1858;48.716;9.648;2023-06-22T09:22:49;6.67;;;2.80;;
3683;SDS011;1858;48.716;9.648;2023-06-22T09:25:17;5.53;;;2.83;;
3683;SDS011;1858;48.716;9.648;2023-06-22T09:27:47;9.10;;;2.90;;
3683;SDS011;1858;48.716;9.648;2023-06-22T09:30:15;4.37;;;2.07;;
3683;SDS011;1858;48.716;9.648;2023-06-22T09:35:32;8.13;;;2.80;;
3683;SDS011;1858;48.716;9.648;2023-06-22T09:38:01;6.33;;;3.13;;
3683;SDS011;1858;48.716;9.648;2023-06-22T09:40:29;5.07;;;2.73;;
3683;SDS011;1858;48.716;9.648;2023-06-22T09:42:59;3.87;;;2.63;;
3683;SDS011;1858;48.716;9.648;2023-06-22T09:45:28;3.90;;;2.33;;
3683;SDS011;1858;48.716;9.648;2023-06-22T09:47:56;5.70;;;2.23;;
3683;SDS011;1858;48.716;9.648;2023-06-22T09:50:24;7.33;;;3.30;;
3683;SDS011;1858;48.716;9.648;2023-06-22T09:52:53;4.70;;;1.90;;
3683;SDS011;1858;48.716;9.648;2023-06-22T09:55:21;5.43;;;2.87;;
3683;SDS011;1858;48.716;9.648;2023-06-22T09:57:50;6.80;;;2.33;;
3683;SDS011;1858;48.716;9.648;2023-06-22T10:00:18;6.00;;;3.03;;
3683;SDS011;1858;48.716;9.648;2023-06-22T10:02:48;4.40;;;2.90;;
3683;SDS011;1858;48.716;9.648;2023-06-22T10:08:05;13.93;;;3.07;;
3683;SDS011;1858;48.716;9.648;2023-06-22T10:10:35;6.53;;;2.60;;
3683;SDS011;1858;48.716;9.648;2023-06-22T10:13:13;6.17;;;2.33;;
3683;SDS011;1858;48.716;9.648;2023-06-22T10:15:38;6.47;;;3.40;;
3683;SDS011;1858;48.716;9.648;2023-06-22T10:18:07;6.67;;;2.60;;
3683;SDS011;1858;48.716;9.648;2023-06-22T10:20:35;7.10;;;2.50;;
3683;SDS011;1858;48.716;9.648;2023-06-22T10:23:04;7.20;;;3.20;;
3683;SDS011;1858;48.716;9.648;2023-06-22T10:25:32;9.23;;;3.20;;
3683;SDS011;1858;48.716;9.648;2023-06-22T10:28:01;9.00;;;3.17;;
3683;SDS011;1858;48.716;9.648;2023-06-22T10:30:29;3.97;;;2.80;;
3683;SDS011;1858;48.716;9.648;2023-06-22T10:32:58;5.30;;;2.93;;
3683;SDS011;1858;48.716;9.648;2023-06-22T10:38:14;9.17;;;2.90;;
3683;SDS011;1858;48.716;9.648;2023-06-22T10:40:43;6.27;;;2.90;;
3683;SDS011;1858;48.716;9.648;2023-06-22T10:43:14;6.70;;;2.63;;
3683;SDS011;1858;48.716;9.648;2023-06-22T10:45:42;8.47;;;3.30;;
3683;SDS011;1858;48.716;9.648;2023-06-22T10:48:11;6.87;;;3.13;;
3683;SDS011;1858;48.716;9.648;2023-06-22T10:50:39;6.83;;;3.20;;
3683;SDS011;1858;48.716;9.648;2023-06-22T10:53:08;4.23;;;3.10;;
3683;SDS011;1858;48.716;9.648;2023-06-22T10:55:36;7.53;;;2.80;;
3683;SDS011;1858;48.716;9.648;2023-06-22T10:58:04;17.10;;;2.77;;
3683;SDS011;1858;48.716;9.648;2023-06-22T11:00:33;5.97;;;2.77;;
3683;SDS011;1858;48.716;9.648;2023-06-22T11:03:02;9.83;;;2.90;;
3683;SDS011;1858;48.716;9.648;2023-06-22T11:05:31;6.03;;;3.00;;
3683;SDS011;1858;48.716;9.648;2023-06-22T11:08:00;5.23;;;3.30;;
3683;SDS011;1858;48.716;9.648;2023-06-22T11:10:28;5.10;;;3.20;;
3683;SDS011;1858;48.716;9.648;2023-06-22T11:12:57;8.80;;;3.37;;
3683;SDS011;1858;48.716;9.648;2023-06-22T11:15:25;4.97;;;2.47;;
3683;SDS011;1858;48.716;9.648;2023-06-22T11:17:54;10.13;;;3.13;;
3683;SDS011;1858;48.716;9.648;2023-06-22T11:20:22;5.70;;;2.83;;
3683;SDS011;1858;48.716;9.648;2023-06-22T11:22:50;9.50;;;3.33;;
3683;SDS011;1858;48.716;9.648;2023-06-22T11:25:19;15.20;;;3.90;;
3683;SDS011;1858;48.716;9.648;2023-06-22T11:27:47;6.33;;;3.47;;
3683;SDS011;1858;48.716;9.648;2023-06-22T11:30:16;9.83;;;3.60;;
3683;SDS011;1858;48.716;9.648;2023-06-22T11:32:44;5.53;;;3.30;;
3683;SDS011;1858;48.716;9.648;2023-06-22T11:35:13;4.43;;;2.80;;
3683;SDS011;1858;48.716;9.648;2023-06-22T11:37:41;5.80;;;2.90;;
3683;SDS011;1858;48.716;9.648;2023-06-22T11:40:10;12.43;;;2.80;;
3683;SDS011;1858;48.716;9.648;2023-06-22T11:42:39;4.60;;;3.17;;
3683;SDS011;1858;48.716;9.648;2023-06-22T11:45:08;6.47;;;3.50;;
3683;SDS011;1858;48.716;9.648;2023-06-22T11:47:36;6.33;;;3.37;;
3683;SDS011;1858;48.716;9.648;2023-06-22T11:50:06;7.27;;;3.33;;
3683;SDS011;1858;48.716;9.648;2023-06-22T11:52:35;5.87;;;3.10;;
3683;SDS011;1858;48.716;9.648;2023-06-22T11:55:06;10.63;;;4.07;;
3683;SDS011;1858;48.716;9.648;2023-06-22T11:57:54;7.83;;;4.03;;
3683;SDS011;1858;48.716;9.648;2023-06-22T12:00:25;5.80;;;2.77;;
3683;SDS011;1858;48.716;9.648;2023-06-22T12:02:53;8.00;;;4.00;;
3683;SDS011;1858;48.716;9.648;2023-06-22T12:05:22;8.90;;;3.33;;
3683;SDS011;1858;48.716;9.648;2023-06-22T12:07:53;5.40;;;3.40;;
3683;SDS011;1858;48.716;9.648;2023-06-22T12:10:22;7.10;;;3.73;;
3683;SDS011;1858;48.716;9.648;2023-06-22T12:12:51;8.20;;;3.07;;
3683;SDS011;1858;48.716;9.648;2023-06-22T12:15:19;8.20;;;2.87;;
3683;SDS011;1858;48.716;9.648;2023-06-22T12:17:48;9.17;;;3.40;;
3683;SDS011;1858;48.716;9.648;2023-06-22T12:20:17;17.80;;;4.13;;
3683;SDS011;1858;48.716;9.648;2023-06-22T12:22:45;10.17;;;3.70;;
3683;SDS011;1858;48.716;9.648;2023-06-22T12:25:14;7.73;;;3.07;;
3683;SDS011;1858;48.716;9.648;2023-06-22T12:27:42;9.07;;;3.37;;
3683;SDS011;1858;48.716;9.648;2023-06-22T12:30:11;6.37;;;3.43;;
3683;SDS011;1858;48.716;9.648;2023-06-22T12:32:39;6.97;;;3.37;;
3683;SDS011;1858;48.716;9.648;2023-06-22T12:35:08;8.10;;;4.10;;
3683;SDS011;1858;48.716;9.648;2023-06-22T12:37:38;7.87;;;3.50;;
3683;SDS011;1858;48.716;9.648;2023-06-22T12:40:10;7.23;;;2.73;;
3683;SDS011;1858;48.716;9.648;2023-06-22T12:42:39;7.43;;;3.47;;
3683;SDS011;1858;48.716;9.648;2023-06-22T12:45:09;9.97;;;3.30;;
3683;SDS011;1858;48.716;9.648;2023-06-22T12:47:37;7.90;;;2.90;;
3683;SDS011;1858;48.716;9.648;2023-06-22T12:50:06;8.57;;;3.33;;
3683;SDS011;1858;48.716;9.648;2023-06-22T12:52:36;7.37;;;3.10;;
3683;SDS011;1858;48.716;9.648;2023-06-22T12:55:09;10.43;;;3.63;;
3683;SDS011;1858;48.716;9.648;2023-06-22T12:57:38;12.63;;;3.20;;
3683;SDS011;1858;48.716;9.648;2023-06-22T13:00:09;9.27;;;3.80;;
3683;SDS011;1858;48.716;9.648;2023-06-22T13:02:56;7.23;;;2.97;;
3683;SDS011;1858;48.716;9.648;2023-06-22T13:05:24;11.40;;;3.57;;
3683;SDS011;1858;48.716;9.648;2023-06-22T13:07:53;5.73;;;3.27;;
3683;SDS011;1858;48.716;9.648;2023-06-22T13:10:21;8.20;;;3.00;;
3683;SDS011;1858;48.716;9.648;2023-06-22T13:12:50;8.07;;;2.57;;
3683;SDS011;1858;48.716;9.648;2023-06-22T13:15:20;7.37;;;3.07;;
3683;SDS011;1858;48.716;9.648;2023-06-22T13:17:48;7.87;;;3.40;;
3683;SDS011;1858;48.716;9.648;2023-06-22T13:20:18;6.90;;;2.97;;
3683;SDS011;1858;48.716;9.648;2023-06-22T13:22:46;8.40;;;3.03;;
3683;SDS011;1858;48.716;9.648;2023-06-22T13:25:15;7.73;;;4.03;;
3683;SDS011;1858;48.716;9.648;2023-06-22T13:27:45;7.60;;;3.17;;
3683;SDS011;1858;48.716;9.648;2023-06-22T13:30:14;7.87;;;3.20;;
3683;SDS011;1858;48.716;9.648;2023-06-22T13:32:42;6.70;;;3.07;;
3683;SDS011;1858;48.716;9.648;2023-06-22T13:35:11;5.70;;;2.73;;
3683;SDS011;1858;48.716;9.648;2023-06-22T13:37:40;7.60;;;3.00;;
3683;SDS011;1858;48.716;9.648;2023-06-22T13:40:08;6.67;;;2.50;;
3683;SDS011;1858;48.716;9.648;2023-06-22T13:42:58;9.27;;;3.23;;
3683;SDS011;1858;48.716;9.648;2023-06-22T13:45:27;5.43;;;2.53;;
3683;SDS011;1858;48.716;9.648;2023-06-22T13:47:55;8.00;;;3.43;;
3683;SDS011;1858;48.716;9.648;2023-06-22T13:50:24;9.93;;;2.63;;
3683;SDS011;1858;48.716;9.648;2023-06-22T13:52:52;8.37;;;3.70;;
3683;SDS011;1858;48.716;9.648;2023-06-22T13:55:21;9.67;;;2.93;;
3683;SDS011;1858;48.716;9.648;2023-06-22T14:00:38;16.90;;;2.93;;
3683;SDS011;1858;48.716;9.648;2023-06-22T14:03:06;6.57;;;3.37;;
3683;SDS011;1858;48.716;9.648;2023-06-22T14:05:34;9.97;;;3.80;;
3683;SDS011;1858;48.716;9.648;2023-06-22T14:08:03;9.63;;;3.57;;
3683;SDS011;1858;48.716;9.648;2023-06-22T14:10:31;8.63;;;3.10;;
3683;SDS011;1858;48.716;9.648;2023-06-22T14:13:04;7.80;;;3.20;;
3683;SDS011;1858;48.716;9.648;2023-06-22T14:15:32;12.10;;;3.97;;
3683;SDS011;1858;48.716;9.648;2023-06-22T14:18:01;10.47;;;2.97;;
3683;SDS011;1858;48.716;9.648;2023-06-22T14:20:29;8.90;;;3.37;;
3683;SDS011;1858;48.716;9.648;2023-06-22T14:22:57;10.60;;;2.90;;
3683;SDS011;1858;48.716;9.648;2023-06-22T14:25:26;5.40;;;2.97;;
3683;SDS011;1858;48.716;9.648;2023-06-22T14:27:54;8.27;;;3.10;;
3683;SDS011;1858;48.716;9.648;2023-06-22T14:33:11;8.93;;;3.23;;
3683;SDS011;1858;48.716;9.648;2023-06-22T14:35:40;11.17;;;4.23;;
3683;SDS011;1858;48.716;9.648;2023-06-22T14:38:08;7.60;;;2.33;;
3683;SDS011;1858;48.716;9.648;2023-06-22T14:40:37;5.90;;;2.80;;
3683;SDS011;1858;48.716;9.648;2023-06-22T14:45:53;8.23;;;3.27;;
3683;SDS011;1858;48.716;9.648;2023-06-22T14:48:22;9.13;;;3.03;;
3683;SDS011;1858;48.716;9.648;2023-06-22T14:50:51;16.50;;;3.67;;
3683;SDS011;1858;48.716;9.648;2023-06-22T14:53:20;7.57;;;3.10;;
3683;SDS011;1858;48.716;9.648;2023-06-22T14:55:55;9.00;;;3.17;;
3683;SDS011;1858;48.716;9.648;2023-06-22T14:58:23;4.97;;;2.10;;
3683;SDS011;1858;48.716;9.648;2023-06-22T15:00:52;3.97;;;2.73;;
3683;SDS011;1858;48.716;9.648;2023-06-22T15:03:20;8.40;;;2.60;;
3683;SDS011;1858;48.716;9.648;2023-06-22T15:05:50;14.37;;;3.03;;
3683;SDS011;1858;48.716;9.648;2023-06-22T15:08:19;7.60;;;3.23;;
3683;SDS011;1858;48.716;9.648;2023-06-22T15:10:47;7.03;;;2.97;;
3683;SDS011;1858;48.716;9.648;2023-06-22T15:13:15;6.90;;;3.17;;
3683;SDS011;1858;48.716;9.648;2023-06-22T15:15:45;6.57;;;2.50;;
3683;SDS011;1858;48.716;9.648;2023-06-22T15:18:14;7.73;;;2.83;;
3683;SDS011;1858;48.716;9.648;2023-06-22T15:20:43;8.23;;;2.70;;
3683;SDS011;1858;48.716;9.648;2023-06-22T15:28:48;6.43;;;2.70;;
3683;SDS011;1858;48.716;9.648;2023-06-22T15:31:16;6.07;;;2.47;;
3683;SDS011;1858;48.716;9.648;2023-06-22T15:33:44;6.93;;;2.40;;
3683;SDS011;1858;48.716;9.648;2023-06-22T15:36:13;5.57;;;2.60;;
3683;SDS011;1858;48.716;9.648;2023-06-22T15:38:41;9.47;;;2.60;;
3683;SDS011;1858;48.716;9.648;2023-06-22T15:41:10;6.20;;;2.70;;
3683;SDS011;1858;48.716;9.648;2023-06-22T15:43:38;7.93;;;3.73;;
3683;SDS011;1858;48.716;9.648;2023-06-22T15:46:07;7.13;;;2.70;;
3683;SDS011;1858;48.716;9.648;2023-06-22T15:48:35;8.63;;;2.90;;
3683;SDS011;1858;48.716;9.648;2023-06-22T15:51:03;7.47;;;2.77;;
3683;SDS011;1858;48.716;9.648;2023-06-22T15:53:32;7.10;;;2.17;;
3683;SDS011;1858;48.716;9.648;2023-06-22T15:56:00;10.83;;;2.30;;
3683;SDS011;1858;48.716;9.648;2023-06-22T15:58:29;10.83;;;3.10;;
3683;SDS011;1858;48.716;9.648;2023-06-22T16:00:57;10.57;;;3.23;;
3683;SDS011;1858;48.716;9.648;2023-06-22T16:03:25;6.63;;;3.63;;
3683;SDS011;1858;48.716;9.648;2023-06-22T16:05:54;6.63;;;2.70;;
3683;SDS011;1858;48.716;9.648;2023-06-22T16:08:22;5.47;;;3.00;;
3683;SDS011;1858;48.716;9.648;2023-06-22T16:10:51;6.00;;;3.17;;
3683;SDS011;1858;48.716;9.648;2023-06-22T16:13:21;11.53;;;3.20;;
3683;SDS011;1858;48.716;9.648;2023-06-22T16:15:49;6.10;;;3.53;;
3683;SDS011;1858;48.716;9.648;2023-06-22T16:18:18;5.33;;;3.27;;
3683;SDS011;1858;48.716;9.648;2023-06-22T16:20:46;7.53;;;3.10;;
3683;SDS011;1858;48.716;9.648;2023-06-22T16:23:15;6.90;;;2.87;;
3683;SDS011;1858;48.716;9.648;2023-06-22T16:25:43;6.87;;;3.00;;
3683;SDS011;1858;48.716;9.648;2023-06-22T16:28:14;6.70;;;2.27;;